Time;durP1;ratioP1;P1;durP2;ratioP2;P2;SDS_P1;SDS_P2;PMS_P1;PMS_P2;Temp;Humidity;BMP_temperature;BMP_pressure;BME280_temperature;BME280_humidity;BME280_pressure;Samples;Min_cycle;Max_cycle;Signal;HPM_P1;HPM_P2
2022/01/31 00:02:27;;;;;;;10.10;2.83;;;3.20;99.90;;;;;;8355057;28;20253;-69
2022/01/31 00:06:28;;;;;;;10.97;2.87;;;3.20;99.90;;;;;;8348505;28;20276;-71
2022/01/31 00:10:30;;;;;;;14.33;2.50;;;3.10;1.00;;;;;;8357759;28;20240;-71
2022/01/31 00:14:39;;;;;;;14.10;2.17;;;3.10;1.00;;;;;;8379118;28;20182;-70
2022/01/31 00:18:40;;;;;;;13.63;2.67;;;3.10;1.00;;;;;;8368485;28;20217;-70
2022/01/31 00:22:41;;;;;;;13.50;2.53;;;3.10;14.80;;;;;;8377513;28;20211;-71
2022/01/31 00:26:42;;;;;;;15.43;2.77;;;3.00;99.90;;;;;;8378593;28;20193;-72
2022/01/31 00:30:43;;;;;;;9.77;2.90;;;3.00;1.00;;;;;;8365472;28;20189;-72
2022/01/31 00:34:44;;;;;;;10.27;2.33;;;3.00;1.00;;;;;;8380760;28;20179;-73
2022/01/31 00:38:44;;;;;;;14.40;2.83;;;3.00;88.30;;;;;;8354880;28;20205;-73
2022/01/31 00:42:46;;;;;;;12.37;2.90;;;3.00;1.00;;;;;;8351755;28;20182;-71
2022/01/31 00:47:25;;;;;;;14.20;2.60;;;3.00;1.00;;;;;;8359827;28;20232;-71
2022/01/31 00:51:16;;;;;;;10.87;2.80;;;3.00;99.90;;;;;;8340490;28;20739;-70
2022/01/31 00:55:17;;;;;;;12.30;2.30;;;3.00;1.00;;;;;;8378051;28;20301;-69
2022/01/31 00:59:19;;;;;;;16.43;2.10;;;3.00;99.90;;;;;;8356042;28;20212;-70
2022/01/31 01:03:20;;;;;;;12.43;2.47;;;3.00;1.00;;;;;;8359087;28;20193;-70
2022/01/31 01:07:20;;;;;;;12.30;2.53;;;3.00;1.00;;;;;;8357428;28;20213;-72
2022/01/31 01:11:21;;;;;;;11.07;2.40;;;3.00;1.00;;;;;;8349639;28;20551;-71
2022/01/31 01:15:22;;;;;;;8.83;2.73;;;3.00;1.00;;;;;;8359023;28;20232;-69
2022/01/31 01:19:23;;;;;;;9.93;2.07;;;3.00;99.90;;;;;;8372594;28;20214;-73
2022/01/31 01:23:24;;;;;;;15.23;3.03;;;3.00;99.90;;;;;;8360459;28;20186;-70
2022/01/31 01:27:25;;;;;;;18.87;2.20;;;2.90;1.00;;;;;;8361129;28;20179;-72
2022/01/31 01:31:26;;;;;;;12.07;2.97;;;2.90;1.00;;;;;;8364132;28;20255;-70
2022/01/31 01:35:32;;;;;;;11.80;2.77;;;2.90;1.00;;;;;;8369396;28;20212;-70
2022/01/31 01:39:33;;;;;;;12.20;2.83;;;2.90;99.90;;;;;;8375173;28;20209;-69
2022/01/31 01:43:34;;;;;;;13.07;3.43;;;2.90;99.90;;;;;;8364254;28;20192;-72
2022/01/31 01:47:35;;;;;;;13.90;2.63;;;2.90;99.90;;;;;;8351567;28;20277;-71
2022/01/31 01:51:37;;;;;;;9.53;2.63;;;2.90;99.90;;;;;;8346848;28;20186;-70
2022/01/31 01:55:39;;;;;;;11.80;2.27;;;2.90;99.90;;;;;;8358005;28;20188;-71
2022/01/31 01:59:41;;;;;;;18.23;2.63;;;2.90;99.90;;;;;;8350043;28;20283;-70
2022/01/31 02:03:41;;;;;;;14.50;2.10;;;2.90;99.90;;;;;;8369637;28;20185;-68
2022/01/31 02:07:42;;;;;;;10.33;2.30;;;2.90;1.00;;;;;;8358989;28;20191;-70
2022/01/31 02:11:43;;;;;;;10.03;2.60;;;2.80;99.90;;;;;;8362899;28;20174;-69
2022/01/31 02:15:50;;;;;;;12.20;2.87;;;2.80;1.00;;;;;;8370097;28;20498;-71
2022/01/31 02:19:53;;;;;;;14.20;2.87;;;2.80;1.00;;;;;;8348633;28;20234;-71
2022/01/31 02:23:54;;;;;;;13.67;2.60;;;2.70;99.90;;;;;;8368506;28;20219;-72
2022/01/31 02:27:55;;;;;;;14.43;2.50;;;2.70;99.90;;;;;;8373236;28;20181;-73
2022/01/31 02:31:56;;;;;;;10.00;2.13;;;2.70;99.90;;;;;;8366303;28;20178;-70
2022/01/31 02:36:00;;;;;;;10.40;2.80;;;2.70;99.90;;;;;;8354082;28;20222;-71
2022/01/31 02:40:01;;;;;;;12.37;2.60;;;2.70;99.90;;;;;;8350156;28;20210;-72
2022/01/31 02:44:03;;;;;;;11.80;2.73;;;2.70;99.90;;;;;;8348839;28;20185;-71
2022/01/31 02:48:04;;;;;;;13.20;2.90;;;2.70;78.40;;;;;;8363298;28;20567;-70
2022/01/31 02:52:06;;;;;;;9.93;2.27;;;2.70;7.70;;;;;;8375930;28;20185;-72
2022/01/31 02:56:07;;;;;;;20.00;3.27;;;2.60;99.90;;;;;;8375014;28;20229;-72
2022/01/31 03:00:10;;;;;;;12.00;2.07;;;2.60;1.00;;;;;;8359818;28;20208;-72
2022/01/31 03:04:12;;;;;;;14.00;3.40;;;2.70;1.00;;;;;;8368486;28;20182;-74
2022/01/31 03:08:15;;;;;;;15.03;2.57;;;2.60;1.00;;;;;;8354588;28;20210;-74
2022/01/31 03:12:16;;;;;;;10.20;2.33;;;2.60;1.00;;;;;;8348439;28;20181;-72
2022/01/31 03:16:17;;;;;;;9.20;2.17;;;2.60;1.00;;;;;;8354702;28;20208;-73
2022/01/31 03:20:20;;;;;;;9.77;2.93;;;2.50;99.90;;;;;;8377066;28;20402;-73
2022/01/31 03:24:21;;;;;;;14.00;3.60;;;2.50;99.90;;;;;;8352532;28;20186;-70
2022/01/31 03:28:22;;;;;;;12.03;3.03;;;2.50;99.90;;;;;;8358958;28;20197;-72
2022/01/31 03:32:23;;;;;;;14.67;3.43;;;2.50;99.90;;;;;;8356533;28;20241;-73
2022/01/31 03:36:24;;;;;;;11.60;2.60;;;2.50;99.90;;;;;;8355432;28;20193;-70
2022/01/31 03:40:25;;;;;;;12.70;2.60;;;2.50;99.90;;;;;;8346308;28;20210;-72
2022/01/31 03:44:26;;;;;;;14.60;2.77;;;2.50;99.90;;;;;;8357247;28;20186;-74
2022/01/31 03:48:28;;;;;;;12.20;2.50;;;2.50;99.90;;;;;;8351683;28;20209;-71
2022/01/31 03:52:29;;;;;;;12.33;2.50;;;2.50;99.90;;;;;;8354397;28;20290;-71
2022/01/31 03:56:30;;;;;;;15.77;3.20;;;2.50;99.90;;;;;;8360020;28;20190;-74
2022/01/31 04:00:31;;;;;;;13.03;2.33;;;2.50;99.90;;;;;;8351818;28;20255;-71
2022/01/31 04:04:32;;;;;;;14.23;2.77;;;2.50;99.90;;;;;;8353275;28;20175;-71
2022/01/31 04:08:32;;;;;;;6.10;1.77;;;2.50;99.90;;;;;;8354793;28;20186;-72
2022/01/31 04:12:33;;;;;;;11.53;2.70;;;2.50;99.90;;;;;;8350423;28;20187;-72
2022/01/31 04:16:34;;;;;;;16.07;3.13;;;2.50;64.40;;;;;;8356670;28;20244;-68
2022/01/31 04:20:36;;;;;;;11.20;2.20;;;2.50;99.90;;;;;;8374989;28;20208;-72
2022/01/31 04:24:40;;;;;;;12.10;2.77;;;2.50;1.00;;;;;;8383756;28;20177;-70
2022/01/31 04:29:01;;;;;;;10.80;2.13;;;2.50;99.90;;;;;;8383370;28;20185;-72
2022/01/31 04:33:02;;;;;;;12.07;3.60;;;2.40;99.90;;;;;;8391314;28;20204;-71
2022/01/31 04:37:03;;;;;;;10.37;2.40;;;2.40;1.00;;;;;;8392491;28;20181;-72
2022/01/31 04:41:04;;;;;;;6.77;2.33;;;2.40;1.00;;;;;;8372644;28;20210;-71
2022/01/31 04:45:06;;;;;;;13.53;2.27;;;2.40;1.00;;;;;;8368135;28;20260;-72
2022/01/31 04:49:07;;;;;;;9.77;2.87;;;2.40;1.00;;;;;;8381698;28;20177;-71
2022/01/31 04:53:08;;;;;;;22.60;3.33;;;2.40;1.00;;;;;;8380071;28;20338;-70
2022/01/31 04:57:09;;;;;;;9.77;2.30;;;2.40;1.00;;;;;;8367086;28;20496;-71
2022/01/31 05:01:10;;;;;;;10.20;2.47;;;2.40;99.90;;;;;;8369880;28;20249;-70
2022/01/31 05:05:11;;;;;;;8.07;2.00;;;2.40;99.90;;;;;;8366919;28;20288;-71
2022/01/31 05:09:12;;;;;;;15.80;2.97;;;2.40;99.90;;;;;;8366632;28;20277;-72
2022/01/31 05:13:14;;;;;;;8.10;2.47;;;2.40;1.00;;;;;;8373886;28;20187;-72
2022/01/31 05:17:15;;;;;;;8.50;2.37;;;2.40;99.90;;;;;;8372481;28;20221;-71
2022/01/31 05:21:16;;;;;;;11.00;3.47;;;2.40;99.90;;;;;;8380876;28;20296;-71
2022/01/31 05:25:17;;;;;;;9.67;2.93;;;2.40;1.00;;;;;;8362446;28;20178;-70
2022/01/31 05:29:18;;;;;;;9.53;3.20;;;2.40;99.90;;;;;;8362463;28;20260;-72
2022/01/31 05:33:19;;;;;;;12.00;3.03;;;2.40;1.00;;;;;;8356691;28;20174;-70
2022/01/31 05:37:20;;;;;;;17.23;2.97;;;2.40;1.00;;;;;;8357183;28;20183;-72
2022/01/31 05:41:20;;;;;;;12.93;2.60;;;2.40;99.90;;;;;;8362423;28;20262;-70
2022/01/31 05:45:21;;;;;;;14.37;3.50;;;2.40;99.90;;;;;;8361741;28;20186;-72
2022/01/31 05:49:22;;;;;;;15.17;2.87;;;2.40;1.00;;;;;;8368339;28;20193;-70
2022/01/31 05:53:23;;;;;;;13.77;3.00;;;2.40;99.90;;;;;;8360822;28;20244;-73
2022/01/31 05:57:24;;;;;;;18.77;6.20;;;2.30;1.00;;;;;;8350317;28;20190;-70
2022/01/31 06:01:25;;;;;;;14.83;8.43;;;2.30;1.00;;;;;;8344498;28;20245;-70
2022/01/31 06:05:26;;;;;;;15.50;3.60;;;2.30;1.00;;;;;;8363522;28;20296;-73
2022/01/31 06:09:28;;;;;;;23.83;7.50;;;2.30;66.80;;;;;;8374424;28;20193;-72
2022/01/31 06:13:32;;;;;;;19.33;4.60;;;2.30;99.90;;;;;;8365910;28;20243;-73
2022/01/31 06:17:33;;;;;;;13.27;3.63;;;2.30;99.90;;;;;;8359555;28;20236;-70
2022/01/31 06:21:34;;;;;;;9.37;2.90;;;2.30;99.90;;;;;;8357935;28;20292;-73
2022/01/31 06:25:35;;;;;;;13.87;3.47;;;2.20;99.90;;;;;;8342754;28;20238;-71
2022/01/31 06:29:35;;;;;;;11.60;3.17;;;2.20;99.90;;;;;;8363579;28;20178;-72
2022/01/31 06:33:36;;;;;;;16.40;6.27;;;2.20;99.90;;;;;;8362560;28;20186;-72
2022/01/31 06:37:37;;;;;;;18.40;6.30;;;2.20;99.90;;;;;;8361557;28;20188;-72
2022/01/31 06:41:38;;;;;;;17.47;5.67;;;2.20;99.90;;;;;;8358807;28;20180;-70
2022/01/31 06:45:39;;;;;;;16.17;3.57;;;2.10;1.00;;;;;;8354287;28;20170;-69
2022/01/31 06:49:39;;;;;;;8.57;3.27;;;2.10;1.00;;;;;;8344318;28;20234;-67
2022/01/31 06:53:41;;;;;;;11.97;2.83;;;2.10;1.00;;;;;;8355002;28;20177;-67
2022/01/31 06:57:43;;;;;;;13.60;4.03;;;2.20;1.00;;;;;;8339992;28;20178;-67
2022/01/31 07:01:43;;;;;;;16.50;5.30;;;2.30;1.00;;;;;;8363860;28;20192;-67
2022/01/31 07:05:44;;;;;;;20.77;6.07;;;2.30;1.00;;;;;;8354418;28;20180;-68
2022/01/31 07:09:45;;;;;;;21.87;8.90;;;2.30;1.00;;;;;;8353045;28;20178;-67
2022/01/31 07:13:48;;;;;;;28.27;8.10;;;2.20;1.00;;;;;;8372391;28;20208;-66
2022/01/31 07:17:49;;;;;;;17.20;6.20;;;2.10;99.90;;;;;;8361006;28;20208;-67
2022/01/31 07:21:51;;;;;;;13.90;5.17;;;2.10;99.90;;;;;;8370085;28;20186;-67
2022/01/31 07:25:52;;;;;;;19.13;4.67;;;2.10;99.90;;;;;;8338407;28;20186;-67
2022/01/31 07:29:53;;;;;;;16.70;4.20;;;2.20;99.90;;;;;;8352844;28;20186;-67
2022/01/31 07:33:54;;;;;;;17.57;4.00;;;2.20;99.90;;;;;;8350746;28;20182;-67
2022/01/31 07:37:55;;;;;;;17.70;4.33;;;2.30;99.90;;;;;;8351916;28;20200;-67
2022/01/31 07:41:55;;;;;;;20.03;6.20;;;2.30;99.90;;;;;;8367871;28;20609;-67
2022/01/31 07:45:56;;;;;;;19.57;4.93;;;2.40;99.90;;;;;;8354516;28;20187;-67
2022/01/31 07:49:57;;;;;;;18.57;8.13;;;2.40;63.10;;;;;;8373438;28;20212;-66
2022/01/31 07:53:58;;;;;;;15.67;5.13;;;2.40;99.90;;;;;;8378517;28;20184;-67
2022/01/31 07:57:59;;;;;;;16.30;4.50;;;2.50;99.90;;;;;;8367674;28;20206;-67
2022/01/31 08:02:00;;;;;;;15.33;4.63;;;2.60;54.90;;;;;;8360168;28;20174;-68
2022/01/31 08:06:02;;;;;;;16.47;4.20;;;2.70;1.00;;;;;;8358586;28;20180;-67
2022/01/31 08:10:04;;;;;;;17.77;4.70;;;2.80;99.90;;;;;;8357273;28;20259;-67
2022/01/31 08:14:07;;;;;;;14.93;4.53;;;2.90;99.90;;;;;;8356348;28;20185;-67
2022/01/31 08:18:08;;;;;;;12.13;4.13;;;2.90;99.90;;;;;;8371646;28;20214;-67
2022/01/31 08:22:09;;;;;;;18.60;4.30;;;3.00;99.90;;;;;;8362932;28;20237;-67
2022/01/31 08:26:14;;;;;;;14.43;4.33;;;3.00;93.20;;;;;;8382976;28;20173;-67
2022/01/31 08:30:21;;;;;;;18.10;5.83;;;3.10;9.80;;;;;;8367427;28;20207;-67
2022/01/31 08:34:25;;;;;;;19.87;6.87;;;3.10;1.00;;;;;;8380941;28;20292;-67
2022/01/31 08:38:25;;;;;;;14.67;4.03;;;3.20;99.90;;;;;;8356670;28;20213;-66
2022/01/31 08:42:28;;;;;;;17.60;4.93;;;3.20;1.00;;;;;;8363749;28;20260;-67
2022/01/31 08:46:29;;;;;;;18.23;4.70;;;3.20;99.90;;;;;;8366166;28;20197;-67
2022/01/31 08:50:30;;;;;;;17.87;4.83;;;3.30;99.90;;;;;;8355152;28;20200;-67
2022/01/31 08:54:31;;;;;;;21.63;5.50;;;3.30;99.90;;;;;;8380789;28;20180;-67
2022/01/31 08:58:33;;;;;;;14.90;5.60;;;3.30;99.90;;;;;;8356374;28;20271;-67
2022/01/31 09:02:40;;;;;;;17.07;4.77;;;3.30;46.60;;;;;;8377400;28;20199;-67
2022/01/31 09:06:43;;;;;;;19.50;7.17;;;3.40;99.90;;;;;;8357409;28;20185;-66
2022/01/31 09:10:44;;;;;;;33.47;10.17;;;3.50;1.00;;;;;;8358613;28;20296;-67
2022/01/31 09:14:45;;;;;;;18.27;7.30;;;3.50;99.90;;;;;;8357475;28;20182;-67
2022/01/31 09:18:46;;;;;;;21.47;5.70;;;3.50;99.90;;;;;;8365758;28;20220;-67
2022/01/31 09:22:47;;;;;;;18.00;4.83;;;3.60;99.90;;;;;;8369125;28;20177;-67
2022/01/31 09:26:48;;;;;;;19.23;4.77;;;3.70;99.90;;;;;;8343780;28;20226;-67
2022/01/31 09:30:49;;;;;;;9.53;4.70;;;3.80;99.90;;;;;;8361688;28;20197;-65
2022/01/31 09:34:51;;;;;;;12.60;4.77;;;4.00;98.20;;;;;;8334023;28;20269;-65
2022/01/31 09:38:52;;;;;;;11.87;4.70;;;4.20;1.00;;;;;;8323867;28;20207;-67
2022/01/31 09:47:21;;;;;;;26.07;8.63;;;4.60;99.90;;;;;;8364251;28;20188;-65
2022/01/31 09:51:24;;;;;;;18.03;4.97;;;4.70;1.00;;;;;;8360943;28;20276;-65
2022/01/31 09:55:26;;;;;;;18.73;4.87;;;4.80;99.90;;;;;;8366888;28;20269;-65
2022/01/31 09:59:27;;;;;;;14.70;4.37;;;4.90;99.90;;;;;;8337505;28;20214;-65
2022/01/31 10:03:28;;;;;;;13.53;5.10;;;4.90;99.90;;;;;;8336358;28;20180;-65
2022/01/31 10:07:46;;;;;;;15.30;4.10;;;4.90;99.90;;;;;;8353848;28;20182;-65
2022/01/31 10:11:56;;;;;;;10.97;4.23;;;5.10;99.90;;;;;;8361331;28;20174;-67
2022/01/31 10:20:31;;;;;;;14.23;5.70;;;5.30;1.00;;;;;;8367419;28;20258;-66
2022/01/31 10:24:33;;;;;;;11.77;3.93;;;5.40;1.00;;;;;;8362368;28;20324;-70
2022/01/31 10:28:40;;;;;;;22.53;5.20;;;5.60;1.00;;;;;;8371288;28;20239;-66
2022/01/31 10:32:50;;;;;;;21.40;5.23;;;5.70;99.90;;;;;;8382129;28;20177;-66
2022/01/31 10:36:52;;;;;;;22.57;4.90;;;5.70;99.90;;;;;;8368207;28;20190;-66
2022/01/31 10:45:36;;;;;;;13.60;4.00;;;6.00;99.90;;;;;;8359164;28;20181;-66
2022/01/31 10:54:14;;;;;;;16.50;6.50;;;6.40;99.90;;;;;;8370168;28;20218;-66
2022/01/31 10:58:14;;;;;;;13.90;4.33;;;6.40;99.90;;;;;;8337677;28;20207;-70
2022/01/31 11:02:19;;;;;;;15.73;4.67;;;6.20;99.90;;;;;;8359062;28;20180;-66
2022/01/31 11:06:23;;;;;;;16.57;4.20;;;6.20;99.90;;;;;;8361511;28;20258;-67
2022/01/31 11:10:28;;;;;;;14.90;3.70;;;6.20;99.90;;;;;;8350899;28;20198;-66
2022/01/31 11:14:29;;;;;;;9.50;3.20;;;6.20;99.90;;;;;;8367675;28;20188;-66
2022/01/31 11:18:31;;;;;;;9.37;3.20;;;6.40;99.90;;;;;;8372430;28;20224;-66
2022/01/31 11:22:37;;;;;;;16.73;4.47;;;6.40;99.90;;;;;;8356935;28;20200;-66
2022/01/31 11:26:39;;;;;;;11.63;3.87;;;6.50;99.90;;;;;;8336915;28;20177;-66
2022/01/31 11:30:41;;;;;;;14.03;4.13;;;6.40;99.90;;;;;;8365146;28;20182;-66
2022/01/31 11:34:44;;;;;;;21.60;6.63;;;6.40;99.90;;;;;;8333631;28;20213;-67
2022/01/31 11:38:51;;;;;;;12.13;3.70;;;6.50;85.50;;;;;;8320495;28;20199;-66
2022/01/31 11:42:52;;;;;;;15.93;5.17;;;6.50;99.90;;;;;;8348606;28;20209;-66
2022/01/31 11:46:55;;;;;;;21.10;5.10;;;6.20;99.90;;;;;;8355676;28;20250;-67
2022/01/31 11:50:59;;;;;;;15.77;3.83;;;6.20;99.90;;;;;;8360667;28;20221;-66
2022/01/31 11:55:03;;;;;;;15.60;5.17;;;6.30;99.90;;;;;;8368628;28;20188;-66
2022/01/31 11:59:04;;;;;;;14.60;3.67;;;6.40;99.90;;;;;;8351318;28;20244;-66
2022/01/31 12:03:08;;;;;;;12.80;4.20;;;6.50;99.90;;;;;;8351228;28;20182;-67
2022/01/31 12:07:39;;;;;;;13.37;4.00;;;6.60;99.90;;;;;;8348817;28;20570;-67
2022/01/31 12:12:11;;;;;;;16.80;3.90;;;6.70;99.90;;;;;;8337645;28;20213;-65
2022/01/31 12:17:08;;;;;;;14.23;3.90;;;6.80;45.20;;;;;;8371059;28;20265;-66
2022/01/31 12:25:31;;;;;;;17.07;4.20;;;6.60;99.90;;;;;;8327679;28;20268;-66
2022/01/31 12:29:39;;;;;;;13.73;4.17;;;6.70;99.90;;;;;;8368170;28;20223;-66
2022/01/31 12:33:41;;;;;;;13.53;3.80;;;6.40;59.90;;;;;;8385198;28;20181;-66
2022/01/31 12:37:50;;;;;;;17.77;4.13;;;6.00;99.90;;;;;;8385696;28;20207;-66
2022/01/31 12:41:59;;;;;;;12.17;3.83;;;6.00;99.90;;;;;;8380929;28;20189;-67
2022/01/31 12:46:02;;;;;;;8.30;4.07;;;6.00;99.90;;;;;;8365000;28;20208;-66
2022/01/31 12:50:22;;;;;;;9.50;3.87;;;5.90;99.90;;;;;;8367953;28;20191;-66
2022/01/31 12:54:23;;;;;;;16.97;4.90;;;5.90;99.90;;;;;;8358376;28;20182;-66
2022/01/31 12:58:32;;;;;;;15.67;3.90;;;5.90;99.90;;;;;;8356215;28;20207;-66
2022/01/31 13:02:33;;;;;;;11.97;3.33;;;5.80;99.90;;;;;;8354249;28;20182;-67
2022/01/31 13:06:37;;;;;;;14.67;3.63;;;5.70;1.00;;;;;;8357704;28;20170;-66
2022/01/31 13:10:38;;;;;;;13.03;3.83;;;5.50;2.20;;;;;;8357164;28;20173;-66
2022/01/31 13:14:51;;;;;;;12.27;3.77;;;5.40;35.90;;;;;;8361254;28;20213;-66
2022/01/31 13:18:52;;;;;;;13.67;4.03;;;5.10;63.30;;;;;;8359872;28;20304;-66
2022/01/31 13:22:53;;;;;;;13.20;4.07;;;4.60;99.90;;;;;;8347938;28;20280;-66
2022/01/31 13:26:59;;;;;;;10.60;3.57;;;4.70;13.20;;;;;;8346969;28;20178;-66
2022/01/31 13:31:08;;;;;;;12.93;3.50;;;4.70;1.00;;;;;;8377147;28;20189;-66
2022/01/31 13:35:20;;;;;;;16.23;3.80;;;4.60;99.90;;;;;;8327981;28;20212;-67
2022/01/31 13:39:22;;;;;;;8.23;2.50;;;4.70;99.90;;;;;;8322942;28;20226;-66
2022/01/31 13:43:27;;;;;;;13.20;3.30;;;4.80;99.90;;;;;;8366136;28;20227;-66
2022/01/31 13:51:44;;;;;;;8.40;3.33;;;5.00;99.90;;;;;;8345240;28;20191;-66
2022/01/31 13:55:51;;;;;;;14.27;3.63;;;5.00;18.30;;;;;;8359688;28;20178;-66
2022/01/31 13:59:54;;;;;;;15.67;4.17;;;5.00;99.90;;;;;;8345243;28;20237;-67
2022/01/31 14:03:55;;;;;;;10.30;2.67;;;5.10;99.90;;;;;;8365517;28;20177;-66
2022/01/31 14:08:06;;;;;;;12.40;3.03;;;5.20;1.00;;;;;;8351794;28;20166;-66
2022/01/31 14:12:14;;;;;;;5.80;2.40;;;5.40;1.00;;;;;;8363018;28;20195;-66
2022/01/31 14:16:27;;;;;;;12.50;3.10;;;5.70;1.00;;;;;;8356045;28;20213;-66
2022/01/31 14:20:31;;;;;;;10.30;3.03;;;5.70;99.90;;;;;;8353466;28;20260;-65
2022/01/31 14:24:33;;;;;;;13.17;3.30;;;5.50;99.90;;;;;;8365233;28;20280;-66
2022/01/31 14:28:46;;;;;;;14.53;3.03;;;5.20;1.00;;;;;;8362432;28;20249;-68
2022/01/31 14:33:06;;;;;;;9.93;2.67;;;5.20;1.00;;;;;;8356480;28;20193;-66
2022/01/31 14:37:09;;;;;;;12.53;3.23;;;5.40;1.00;;;;;;8360973;28;20311;-67
2022/01/31 14:41:19;;;;;;;19.40;3.93;;;5.40;1.00;;;;;;8354672;28;20210;-66
2022/01/31 14:49:40;;;;;;;13.73;4.27;;;5.00;13.70;;;;;;8365069;28;20196;-66
2022/01/31 14:53:59;;;;;;;10.63;4.40;;;4.70;99.90;;;;;;8369050;28;20264;-65
2022/01/31 14:58:00;;;;;;;10.93;4.43;;;4.60;99.90;;;;;;8350704;28;20181;-66
2022/01/31 15:02:00;;;;;;;13.07;3.87;;;4.60;1.00;;;;;;8360227;28;20184;-66
2022/01/31 15:06:01;;;;;;;9.67;3.37;;;4.60;65.30;;;;;;8355828;28;20264;-66
2022/01/31 15:10:04;;;;;;;7.20;3.20;;;4.60;99.90;;;;;;8360824;28;20467;-66
2022/01/31 15:14:05;;;;;;;14.40;5.17;;;4.60;1.00;;;;;;8368128;28;20201;-65
2022/01/31 15:18:06;;;;;;;17.10;6.47;;;4.50;7.00;;;;;;8344558;28;20226;-66
2022/01/31 15:22:10;;;;;;;15.60;6.77;;;4.40;99.90;;;;;;8356278;28;20206;-65
2022/01/31 15:26:16;;;;;;;14.90;7.23;;;4.30;99.90;;;;;;8352062;28;20270;-66
2022/01/31 15:30:17;;;;;;;15.47;6.50;;;4.10;99.90;;;;;;8352751;28;20190;-66
2022/01/31 15:34:18;;;;;;;14.03;4.83;;;4.00;1.00;;;;;;8356552;28;20189;-67
2022/01/31 15:38:19;;;;;;;10.50;4.47;;;3.90;99.90;;;;;;8360665;28;20227;-66
2022/01/31 15:42:20;;;;;;;10.97;4.53;;;3.80;99.90;;;;;;8349862;28;20208;-65
2022/01/31 15:46:25;;;;;;;15.87;4.43;;;3.70;99.90;;;;;;8361265;28;20189;-67
2022/01/31 15:50:26;;;;;;;12.20;4.47;;;3.60;1.00;;;;;;8355774;28;20194;-67
2022/01/31 15:54:27;;;;;;;12.13;5.43;;;3.40;99.90;;;;;;8350302;28;20207;-69
2022/01/31 15:58:28;;;;;;;13.67;5.37;;;3.40;68.40;;;;;;8342860;28;20235;-66
2022/01/31 16:02:29;;;;;;;10.43;4.57;;;3.30;99.90;;;;;;8347586;28;20200;-67
2022/01/31 16:06:30;;;;;;;6.77;3.60;;;3.20;99.90;;;;;;8356325;28;20288;-67
2022/01/31 16:10:31;;;;;;;12.27;4.57;;;3.10;99.90;;;;;;8353347;28;20195;-65
2022/01/31 16:14:32;;;;;;;12.87;4.07;;;3.00;99.90;;;;;;8368601;28;20252;-71
2022/01/31 16:18:33;;;;;;;12.97;5.10;;;2.90;99.90;;;;;;8376152;28;20229;-69
2022/01/31 16:22:35;;;;;;;13.20;4.70;;;2.90;99.90;;;;;;8384018;28;20213;-69
2022/01/31 16:26:36;;;;;;;14.83;5.10;;;2.80;99.90;;;;;;8367995;28;20238;-71
2022/01/31 16:30:38;;;;;;;11.50;4.80;;;2.70;99.90;;;;;;8363562;28;20186;-71
2022/01/31 16:34:39;;;;;;;13.27;5.03;;;2.60;99.90;;;;;;8366186;28;20187;-68
2022/01/31 16:38:40;;;;;;;15.77;4.80;;;2.60;99.90;;;;;;8364911;28;20213;-70
2022/01/31 16:42:41;;;;;;;9.97;4.70;;;2.50;99.90;;;;;;8377968;28;20185;-69
2022/01/31 16:46:42;;;;;;;13.23;5.23;;;2.40;99.90;;;;;;8373286;28;20181;-69
2022/01/31 16:50:43;;;;;;;14.67;5.60;;;2.40;99.90;;;;;;8373328;28;20191;-70
2022/01/31 16:54:44;;;;;;;12.70;4.63;;;2.30;99.90;;;;;;8369614;28;20186;-71
2022/01/31 16:58:45;;;;;;;18.70;4.87;;;2.30;99.90;;;;;;8365671;28;20276;-70
2022/01/31 17:02:46;;;;;;;10.07;4.70;;;2.20;99.90;;;;;;8385034;28;20178;-70
2022/01/31 17:06:47;;;;;;;10.13;4.13;;;2.20;99.90;;;;;;8363858;28;20281;-72
2022/01/31 17:10:48;;;;;;;14.67;4.60;;;2.20;99.90;;;;;;8361505;28;20180;-69
2022/01/31 17:14:49;;;;;;;23.90;7.10;;;2.20;99.90;;;;;;8386341;28;20234;-69
2022/01/31 17:18:50;;;;;;;21.97;6.83;;;2.20;99.90;;;;;;8374065;28;20222;-70
2022/01/31 17:22:51;;;;;;;20.97;7.53;;;2.10;99.90;;;;;;8376459;28;20192;-72
2022/01/31 17:26:52;;;;;;;19.87;7.77;;;2.10;99.90;;;;;;8379701;28;20182;-71
2022/01/31 17:30:53;;;;;;;25.73;8.70;;;2.00;99.90;;;;;;8370502;28;20280;-72
2022/01/31 17:34:54;;;;;;;20.77;7.97;;;2.00;99.90;;;;;;8343217;28;20191;-68
2022/01/31 17:38:54;;;;;;;20.50;9.20;;;2.00;99.90;;;;;;8327453;28;20270;-70
2022/01/31 17:43:01;;;;;;;31.40;11.83;;;2.00;99.90;;;;;;8364313;28;20464;-71
2022/01/31 17:47:02;;;;;;;34.67;13.30;;;2.00;99.90;;;;;;8370844;28;20281;-71
2022/01/31 17:51:03;;;;;;;21.63;8.10;;;2.00;99.90;;;;;;8352868;28;20201;-69
2022/01/31 17:55:05;;;;;;;13.27;6.30;;;1.90;99.90;;;;;;8353606;28;20185;-71
2022/01/31 17:59:07;;;;;;;17.60;8.77;;;2.00;99.90;;;;;;8349664;28;20625;-70
2022/01/31 18:03:07;;;;;;;60.73;24.77;;;1.90;99.90;;;;;;8359374;28;20241;-70
2022/01/31 18:07:09;;;;;;;90.70;35.80;;;1.90;99.90;;;;;;8381525;28;20185;-70
2022/01/31 18:11:10;;;;;;;74.33;31.97;;;1.90;99.90;;;;;;8370109;28;20194;-67
2022/01/31 18:15:13;;;;;;;151.67;56.37;;;1.90;99.90;;;;;;8365447;28;20186;-71
2022/01/31 18:19:14;;;;;;;144.90;51.50;;;1.90;99.90;;;;;;8376490;28;20527;-70
2022/01/31 18:23:15;;;;;;;110.83;41.93;;;1.90;99.90;;;;;;8372957;28;20268;-68
2022/01/31 18:27:18;;;;;;;85.83;31.07;;;1.80;99.90;;;;;;8362648;28;20194;-72
2022/01/31 18:31:21;;;;;;;42.30;18.53;;;1.80;99.90;;;;;;8365566;28;20193;-68
2022/01/31 18:35:23;;;;;;;30.20;13.37;;;1.70;99.90;;;;;;8357571;28;20205;-72
2022/01/31 18:39:24;;;;;;;31.20;13.80;;;1.60;99.90;;;;;;8357513;28;20219;-69
2022/01/31 18:43:25;;;;;;;36.60;14.03;;;1.50;99.90;;;;;;8354586;28;20503;-71
2022/01/31 18:47:26;;;;;;;40.37;14.40;;;1.40;99.90;;;;;;8369155;28;20238;-71
2022/01/31 18:51:27;;;;;;;38.13;15.33;;;1.30;99.90;;;;;;8374958;28;20230;-70
2022/01/31 18:55:28;;;;;;;36.20;13.80;;;1.30;99.90;;;;;;8372277;28;20186;-71
2022/01/31 18:59:29;;;;;;;30.57;12.43;;;1.20;99.90;;;;;;8361867;28;20304;-67
2022/01/31 19:03:30;;;;;;;32.13;12.73;;;1.10;99.90;;;;;;8357437;28;20285;-72
2022/01/31 19:07:31;;;;;;;34.93;11.97;;;0.90;99.90;;;;;;8356837;28;20184;-69
2022/01/31 19:11:41;;;;;;;31.47;11.90;;;0.80;99.90;;;;;;8367918;28;20195;-70
2022/01/31 19:15:43;;;;;;;32.10;13.33;;;0.60;99.90;;;;;;8364892;28;20202;-71
2022/01/31 19:19:47;;;;;;;19.20;8.43;;;0.50;99.90;;;;;;8376508;28;20247;-72
2022/01/31 19:23:49;;;;;;;19.40;7.90;;;0.30;99.90;;;;;;8367390;28;20181;-71
2022/01/31 19:27:50;;;;;;;16.50;6.97;;;0.10;99.90;;;;;;8348033;28;20181;-69
2022/01/31 19:31:51;;;;;;;13.80;6.47;;;0.00;99.90;;;;;;8366045;28;20177;-72
2022/01/31 19:35:54;;;;;;;17.17;6.20;;;-0.10;99.90;;;;;;8357229;28;20296;-70
2022/01/31 19:43:55;;;;;;;16.13;6.70;;;-0.30;99.90;;;;;;8350748;28;20182;-72
2022/01/31 19:47:56;;;;;;;16.47;7.27;;;-0.30;99.90;;;;;;8374670;28;20267;-67
2022/01/31 19:51:57;;;;;;;14.47;6.40;;;-0.30;99.90;;;;;;8355324;28;20186;-70
2022/01/31 19:55:58;;;;;;;20.37;8.00;;;-0.30;99.90;;;;;;8352396;28;20196;-70
2022/01/31 20:00:05;;;;;;;18.33;7.77;;;-0.30;99.90;;;;;;8358165;28;20231;-69
2022/01/31 20:04:06;;;;;;;19.10;8.23;;;-0.30;99.90;;;;;;8355688;28;20174;-71
2022/01/31 20:08:11;;;;;;;23.87;9.13;;;-0.30;99.90;;;;;;8370510;28;20190;-71
2022/01/31 20:12:12;;;;;;;24.90;9.60;;;-0.30;99.90;;;;;;8376041;28;20181;-71
2022/01/31 20:16:18;;;;;;;22.17;8.87;;;-0.20;99.90;;;;;;8361402;28;20279;-71
2022/01/31 20:20:19;;;;;;;26.87;9.07;;;-0.10;99.90;;;;;;8378225;28;20245;-72
2022/01/31 20:24:21;;;;;;;26.77;12.93;;;-0.10;99.90;;;;;;8386451;28;20189;-71
2022/01/31 20:28:27;;;;;;;39.20;11.03;;;0.00;99.90;;;;;;8357816;28;20176;-69
2022/01/31 20:32:28;;;;;;;26.37;9.43;;;0.00;99.90;;;;;;8369057;28;20236;-72
2022/01/31 20:36:32;;;;;;;33.90;13.60;;;-0.10;99.90;;;;;;8362332;28;20260;-71
2022/01/31 20:44:45;;;;;;;25.40;10.50;;;-0.20;99.90;;;;;;8374631;28;20189;-70
2022/01/31 20:48:48;;;;;;;23.27;9.17;;;-0.30;99.90;;;;;;8373298;28;20227;-70
2022/01/31 20:52:49;;;;;;;21.80;9.57;;;-0.40;99.90;;;;;;8371380;28;20188;-70
2022/01/31 20:56:49;;;;;;;23.80;8.97;;;-0.40;99.90;;;;;;8367699;28;20190;-69
2022/01/31 21:00:55;;;;;;;26.87;11.27;;;-0.30;99.90;;;;;;8381153;28;20205;-71
2022/01/31 21:04:56;;;;;;;32.83;11.10;;;-0.30;99.90;;;;;;8368643;28;20227;-74
2022/01/31 21:08:58;;;;;;;40.40;14.60;;;-0.20;99.90;;;;;;8354994;28;20189;-70
2022/01/31 21:13:00;;;;;;;33.40;9.87;;;-0.10;99.90;;;;;;8368436;28;20268;-70
2022/01/31 21:17:02;;;;;;;28.93;8.87;;;0.00;99.90;;;;;;8389572;28;20216;-71
2022/01/31 21:21:03;;;;;;;27.20;9.60;;;0.10;99.90;;;;;;8366399;28;20209;-71
2022/01/31 21:25:05;;;;;;;35.63;9.77;;;0.10;99.90;;;;;;8376839;28;20213;-72
2022/01/31 21:29:07;;;;;;;37.43;11.17;;;0.10;99.90;;;;;;8356965;28;20207;-69
2022/01/31 21:33:11;;;;;;;27.40;9.57;;;0.10;99.90;;;;;;8343507;28;20226;-70
2022/01/31 21:37:11;;;;;;;32.57;9.00;;;0.10;99.90;;;;;;8323814;28;20197;-71
2022/01/31 21:41:13;;;;;;;29.33;10.00;;;0.10;99.90;;;;;;8339419;28;20205;-69
2022/01/31 21:45:16;;;;;;;35.33;9.30;;;0.10;99.90;;;;;;8360626;28;20256;-71